createdAt,value
2023-01-29T00:00:15.846Z,16.85
2023-01-29T00:03:11.818Z,16.50
2023-01-29T00:05:43.350Z,15.63
2023-01-29T00:08:15.205Z,17.58
2023-01-29T00:10:46.669Z,20.38
2023-01-29T00:13:21.386Z,16.67
2023-01-29T00:15:57.874Z,20.75
2023-01-29T00:18:30.567Z,17.38
2023-01-29T00:21:02.047Z,20.80
2023-01-29T00:23:33.812Z,22.38
2023-01-29T00:26:05.510Z,24.77
2023-01-29T00:28:40.171Z,21.02
2023-01-29T00:31:14.791Z,22.77
2023-01-29T00:33:46.751Z,22.92
2023-01-29T00:36:19.797Z,23.55
2023-01-29T00:38:59.037Z,22.88
2023-01-29T00:41:45.749Z,22.85
2023-01-29T00:44:34.097Z,22.88
2023-01-29T00:47:27.602Z,24.88
2023-01-29T00:50:09.273Z,25.05
2023-01-29T00:52:44.259Z,21.90
2023-01-29T00:55:19.429Z,33.13
2023-01-29T00:57:53.518Z,25.35
2023-01-29T01:00:28.726Z,25.67
2023-01-29T01:03:06.820Z,28.75
2023-01-29T01:05:40.213Z,26.05
2023-01-29T01:08:27.033Z,27.90
2023-01-29T01:11:06.090Z,25.98
2023-01-29T01:13:40.880Z,27.52
2023-01-29T01:16:21.198Z,30.58
2023-01-29T01:18:53.116Z,27.98
2023-01-29T01:21:25.363Z,29.13
2023-01-29T01:23:56.996Z,29.60
2023-01-29T01:26:29.401Z,29.48
2023-01-29T01:29:03.015Z,27.73
2023-01-29T01:31:42.813Z,28.80
2023-01-29T01:34:14.820Z,28.83
2023-01-29T01:36:47.407Z,32.20
2023-01-29T01:39:25.843Z,28.42
2023-01-29T01:42:03.951Z,30.75
2023-01-29T01:45:04.944Z,34.40
2023-01-29T01:47:45.347Z,39.75
2023-01-29T01:50:24.122Z,29.63
2023-01-29T01:53:01.224Z,31.15
2023-01-29T01:55:38.851Z,34.50
2023-01-29T01:58:21.244Z,32.15
2023-01-29T02:00:58.061Z,31.45
2023-01-29T02:03:49.688Z,33.80
2023-01-29T02:06:33.668Z,34.17
2023-01-29T02:09:24.492Z,29.40
2023-01-29T02:11:56.387Z,34.30
2023-01-29T02:14:28.744Z,28.40
2023-01-29T02:17:00.656Z,33.47
2023-01-29T02:19:45.575Z,30.25
2023-01-29T02:22:33.318Z,29.42
2023-01-29T02:25:23.973Z,32.53
2023-01-29T02:28:28.280Z,32.05
2023-01-29T02:31:12.642Z,32.40
2023-01-29T02:33:58.488Z,37.75
2023-01-29T02:36:38.734Z,33.15
2023-01-29T02:39:20.758Z,37.00
2023-01-29T02:42:03.200Z,32.88
2023-01-29T02:44:41.855Z,34.78
2023-01-29T02:47:24.903Z,35.45
2023-01-29T02:50:04.251Z,35.05
2023-01-29T02:52:43.729Z,37.15
2023-01-29T02:55:19.369Z,33.47
2023-01-29T02:57:54.740Z,33.60
2023-01-29T03:00:31.272Z,36.42
2023-01-29T03:03:11.854Z,34.67
2023-01-29T03:05:51.569Z,32.85
2023-01-29T03:08:37.096Z,32.75
2023-01-29T03:11:14.043Z,36.92
2023-01-29T03:13:51.077Z,33.85
2023-01-29T03:16:28.827Z,34.47
2023-01-29T03:19:11.296Z,34.17
2023-01-29T03:22:02.171Z,33.95
2023-01-29T03:24:52.993Z,35.25
2023-01-29T03:27:42.058Z,34.58
2023-01-29T03:30:31.139Z,35.50
2023-01-29T03:33:07.250Z,31.23
2023-01-29T03:35:48.898Z,36.63
2023-01-29T03:38:21.012Z,34.60
2023-01-29T03:40:56.697Z,35.90
2023-01-29T03:43:37.627Z,33.28
2023-01-29T03:46:19.255Z,37.78
2023-01-29T03:48:59.371Z,33.72
2023-01-29T03:51:42.239Z,32.97
2023-01-29T03:54:22.136Z,37.25
2023-01-29T03:57:03.090Z,37.05
2023-01-29T03:59:42.188Z,34.33
2023-01-29T04:02:28.293Z,37.58
2023-01-29T04:05:05.614Z,37.22
2023-01-29T04:07:43.987Z,40.35
2023-01-29T04:10:20.761Z,34.45
2023-01-29T04:12:58.674Z,41.17
2023-01-29T04:15:35.458Z,39.58
2023-01-29T04:18:07.786Z,36.20
2023-01-29T04:20:40.460Z,41.53
2023-01-29T04:23:25.966Z,42.20
2023-01-29T04:26:08.409Z,41.47
2023-01-29T04:28:56.387Z,45.65
2023-01-29T04:31:36.136Z,48.28
2023-01-29T04:34:18.250Z,44.15
2023-01-29T04:37:03.537Z,47.15
2023-01-29T04:39:47.353Z,47.70
2023-01-29T04:42:28.447Z,48.13
2023-01-29T04:45:06.996Z,43.72
2023-01-29T04:47:48.206Z,47.35
2023-01-29T04:50:25.648Z,49.03
2023-01-29T04:53:04.693Z,49.38
2023-01-29T04:55:46.688Z,47.10
2023-01-29T04:58:29.904Z,46.30
2023-01-29T05:01:03.337Z,49.03
2023-01-29T05:03:37.860Z,50.95
2023-01-29T05:06:11.417Z,46.90
2023-01-29T05:08:44.606Z,50.40
2023-01-29T05:11:21.773Z,52.40
2023-01-29T05:13:54.379Z,59.65
2023-01-29T05:16:30.011Z,63.20
2023-01-29T05:19:03.683Z,58.78
2023-01-29T05:21:36.218Z,61.88
2023-01-29T05:24:14.534Z,60.08
2023-01-29T05:27:04.977Z,66.82
2023-01-29T05:29:36.933Z,66.13
2023-01-29T05:32:09.309Z,66.70
2023-01-29T05:34:41.500Z,62.35
2023-01-29T05:37:14.188Z,61.72
2023-01-29T05:39:45.987Z,63.40
2023-01-29T05:42:20.967Z,62.80
2023-01-29T05:44:52.962Z,56.53
2023-01-29T05:47:25.688Z,59.60
2023-01-29T05:49:57.410Z,62.17
2023-01-29T05:52:31.824Z,54.28
2023-01-29T05:55:03.458Z,58.20
2023-01-29T05:57:38.421Z,63.90
2023-01-29T06:00:13.499Z,64.18
2023-01-29T06:02:45.804Z,60.28
2023-01-29T06:05:27.093Z,64.60
2023-01-29T06:07:59.399Z,59.78
2023-01-29T06:10:31.491Z,56.65
2023-01-29T06:13:07.468Z,59.63
2023-01-29T06:15:42.438Z,58.78
2023-01-29T06:18:14.898Z,56.78
2023-01-29T06:20:47.028Z,60.17
2023-01-29T06:23:19.567Z,58.22
2023-01-29T06:25:51.578Z,65.25
2023-01-29T06:28:29.027Z,61.80
2023-01-29T06:31:20.940Z,64.90
2023-01-29T06:33:53.877Z,59.10
2023-01-29T06:36:25.770Z,66.47
2023-01-29T06:38:57.728Z,67.85
2023-01-29T06:41:30.206Z,65.30
2023-01-29T06:44:05.048Z,64.38
2023-01-29T06:46:36.803Z,62.58
2023-01-29T06:49:08.893Z,63.95
2023-01-29T06:51:40.850Z,65.40
2023-01-29T06:54:13.458Z,62.88
2023-01-29T06:56:45.477Z,55.75
2023-01-29T06:59:20.377Z,60.72
2023-01-29T07:01:52.130Z,58.88
2023-01-29T07:04:24.557Z,64.18
2023-01-29T07:06:56.527Z,67.28
2023-01-29T07:09:28.816Z,58.85
2023-01-29T07:12:00.799Z,63.95
2023-01-29T07:14:35.917Z,59.95
2023-01-29T07:17:08.039Z,64.15
2023-01-29T07:19:40.501Z,66.35
2023-01-29T07:22:12.480Z,69.63
2023-01-29T07:24:44.999Z,71.65
2023-01-29T07:27:16.841Z,79.15
2023-01-29T07:29:51.764Z,68.50
2023-01-29T07:32:23.950Z,75.55
2023-01-29T07:34:56.403Z,81.18
2023-01-29T07:37:28.260Z,74.60
2023-01-29T07:40:00.614Z,79.53
2023-01-29T07:42:32.460Z,80.72
2023-01-29T07:45:07.960Z,76.72
2023-01-29T07:47:40.198Z,76.97
2023-01-29T07:50:13.884Z,76.20
2023-01-29T07:52:58.016Z,73.22
2023-01-29T07:55:29.836Z,77.45
2023-01-29T07:58:02.432Z,84.18
2023-01-29T08:00:36.828Z,77.65
2023-01-29T08:03:10.708Z,83.80
2023-01-29T08:05:43.486Z,89.65
2023-01-29T08:08:15.905Z,88.95
2023-01-29T08:10:47.933Z,91.13
2023-01-29T08:13:19.781Z,84.95
2023-01-29T08:15:54.552Z,93.30
2023-01-29T08:18:26.321Z,73.70
2023-01-29T08:21:03.338Z,83.32
2023-01-29T08:23:35.299Z,80.85
2023-01-29T08:26:09.023Z,80.50
2023-01-29T08:28:41.981Z,79.97
2023-01-29T08:31:22.695Z,79.50
2023-01-29T08:34:12.391Z,75.80
2023-01-29T08:36:44.897Z,77.25
2023-01-29T08:39:16.949Z,82.25
2023-01-29T08:41:49.393Z,82.60
2023-01-29T08:44:21.716Z,78.90
2023-01-29T08:46:56.820Z,72.03
2023-01-29T08:49:28.888Z,72.22
2023-01-29T08:52:03.057Z,65.72
2023-01-29T08:54:36.057Z,74.57
2023-01-29T08:57:10.893Z,72.38
2023-01-29T08:59:43.021Z,69.00
2023-01-29T09:02:18.154Z,73.32
2023-01-29T09:04:50.250Z,71.10
2023-01-29T09:07:22.902Z,77.05
2023-01-29T09:09:55.739Z,67.97
2023-01-29T09:12:28.738Z,73.40
2023-01-29T09:15:00.907Z,67.07
2023-01-29T09:17:36.663Z,72.13
2023-01-29T09:20:10.550Z,71.00
2023-01-29T09:22:43.078Z,69.75
2023-01-29T09:25:16.016Z,67.07
2023-01-29T09:27:48.641Z,62.10
2023-01-29T09:30:22.042Z,62.20
2023-01-29T09:32:57.348Z,63.17
2023-01-29T09:38:28.140Z,67.18
2023-01-29T09:41:09.676Z,54.65
2023-01-29T09:43:52.465Z,58.28
2023-01-29T09:46:28.630Z,54.17
2023-01-29T09:49:10.721Z,58.17
2023-01-29T09:51:46.680Z,56.38
2023-01-29T09:54:26.645Z,56.05
2023-01-29T09:57:00.404Z,56.95
2023-01-29T09:59:35.422Z,51.80
2023-01-29T10:02:14.021Z,52.42
2023-01-29T10:05:12.101Z,53.08
2023-01-29T10:08:26.778Z,51.03
2023-01-29T10:11:09.893Z,47.95
2023-01-29T10:13:51.620Z,49.63
2023-01-29T10:16:44.584Z,47.40
2023-01-29T10:19:41.409Z,46.80
2023-01-29T10:22:45.192Z,46.08
2023-01-29T10:25:20.196Z,48.22
2023-01-29T10:27:54.732Z,44.10
2023-01-29T10:30:34.549Z,42.08
2023-01-29T10:33:08.948Z,42.05
2023-01-29T10:35:44.889Z,39.28
2023-01-29T10:38:31.634Z,45.35
2023-01-29T10:41:15.154Z,39.30
2023-01-29T10:43:58.849Z,39.58
2023-01-29T10:46:44.229Z,42.85
2023-01-29T10:49:30.034Z,41.15
2023-01-29T10:52:21.496Z,36.72
2023-01-29T10:55:07.970Z,34.35
2023-01-29T10:58:01.339Z,39.08
2023-01-29T11:00:41.652Z,37.63
2023-01-29T11:03:27.524Z,34.60
2023-01-29T11:06:15.415Z,34.08
2023-01-29T11:08:54.561Z,37.75
2023-01-29T11:11:49.891Z,32.80
2023-01-29T11:14:28.652Z,35.45
2023-01-29T11:17:00.844Z,33.83
2023-01-29T11:19:42.119Z,35.40
2023-01-29T11:22:38.320Z,32.42
2023-01-29T11:25:20.430Z,31.40
2023-01-29T11:28:05.710Z,29.85
2023-01-29T11:30:41.266Z,37.15
2023-01-29T11:33:21.988Z,33.55
2023-01-29T11:36:19.732Z,31.02
2023-01-29T11:39:22.439Z,31.23
2023-01-29T11:41:59.450Z,30.70
2023-01-29T11:44:54.814Z,31.80
2023-01-29T11:47:31.025Z,31.23
2023-01-29T11:50:05.752Z,32.75
2023-01-29T11:52:41.130Z,29.10
2023-01-29T11:55:21.416Z,33.05
2023-01-29T11:57:56.454Z,30.00
2023-01-29T12:00:34.733Z,26.58
2023-01-29T12:03:16.230Z,31.05
2023-01-29T12:05:59.264Z,31.20
2023-01-29T12:08:37.431Z,32.88
2023-01-29T12:11:16.052Z,27.10
2023-01-29T12:13:57.590Z,30.38
2023-01-29T12:16:36.793Z,30.58
2023-01-29T12:19:15.798Z,26.90
2023-01-29T12:21:54.412Z,30.80
2023-01-29T12:24:38.110Z,30.80
2023-01-29T12:27:17.890Z,32.08
2023-01-29T12:29:56.268Z,28.85
2023-01-29T12:32:38.613Z,28.52
2023-01-29T12:35:19.430Z,29.98
2023-01-29T12:38:01.894Z,30.05
2023-01-29T12:40:43.810Z,31.02
2023-01-29T12:43:21.530Z,29.85
2023-01-29T12:45:57.360Z,29.98
2023-01-29T12:48:37.076Z,30.70
2023-01-29T12:51:15.110Z,36.08
2023-01-29T12:54:03.518Z,36.15
2023-01-29T12:56:40.370Z,33.45
2023-01-29T12:59:20.672Z,31.63
2023-01-29T13:01:58.390Z,29.17
2023-01-29T13:04:43.796Z,30.75
2023-01-29T13:07:24.196Z,33.42
2023-01-29T13:10:01.098Z,31.10
2023-01-29T13:12:36.684Z,32.97
2023-01-29T13:15:20.802Z,31.88
2023-01-29T13:17:56.829Z,30.92
2023-01-29T13:20:37.804Z,31.33
2023-01-29T13:23:20.104Z,37.67
2023-01-29T13:25:55.216Z,33.10
2023-01-29T13:28:29.941Z,31.33
2023-01-29T13:31:21.664Z,33.35
2023-01-29T13:33:59.386Z,35.63
2023-01-29T13:36:35.273Z,32.47
2023-01-29T13:39:18.148Z,31.00
2023-01-29T13:41:50.444Z,32.97
2023-01-29T13:44:26.504Z,34.10
2023-01-29T13:47:02.015Z,32.28
2023-01-29T13:49:40.582Z,34.58
2023-01-29T13:52:31.001Z,34.47
2023-01-29T13:55:06.181Z,34.53
2023-01-29T13:57:55.860Z,33.58
2023-01-29T14:00:52.085Z,32.53
2023-01-29T14:04:05.922Z,39.17
2023-01-29T14:06:51.207Z,35.47
2023-01-29T14:10:07.828Z,36.53
2023-01-29T14:12:45.124Z,41.80
2023-01-29T14:15:33.559Z,43.28
2023-01-29T14:18:27.767Z,44.42
2023-01-29T14:21:08.843Z,54.75
2023-01-29T14:23:44.699Z,53.58
2023-01-29T14:26:30.995Z,52.90
2023-01-29T14:29:07.145Z,52.45
2023-01-29T14:31:47.917Z,50.55
2023-01-29T14:34:31.021Z,50.10
2023-01-29T14:37:07.115Z,52.80
2023-01-29T14:39:46.579Z,52.63
2023-01-29T14:42:26.976Z,54.05
2023-01-29T14:45:11.835Z,62.33
2023-01-29T14:48:25.244Z,59.53
2023-01-29T14:51:02.617Z,55.80
2023-01-29T14:54:02.101Z,63.78
2023-01-29T14:56:38.676Z,56.88
2023-01-29T14:59:23.212Z,58.88
2023-01-29T15:01:59.025Z,55.80
2023-01-29T15:04:33.870Z,63.13
2023-01-29T15:07:09.248Z,61.65
2023-01-29T15:09:49.055Z,67.15
2023-01-29T15:12:30.693Z,65.13
2023-01-29T15:15:13.526Z,54.35
2023-01-29T15:17:53.368Z,57.38
2023-01-29T15:20:35.040Z,52.53
2023-01-29T15:23:08.130Z,54.35
2023-01-29T15:25:50.021Z,55.42
2023-01-29T15:28:21.051Z,50.40
2023-01-29T15:30:59.545Z,63.30
2023-01-29T15:33:31.590Z,58.28
2023-01-29T15:36:08.041Z,55.50
2023-01-29T15:38:40.141Z,51.47
2023-01-29T15:41:21.714Z,54.72
2023-01-29T15:43:59.741Z,50.65
2023-01-29T15:46:37.157Z,55.65
2023-01-29T15:49:13.312Z,49.55
2023-01-29T15:51:45.616Z,46.75
2023-01-29T15:54:20.747Z,52.17
2023-01-29T15:56:55.272Z,50.70
2023-01-29T15:59:29.732Z,54.50
2023-01-29T16:02:21.876Z,49.70
2023-01-29T16:04:53.244Z,46.72
2023-01-29T16:07:25.396Z,47.42
2023-01-29T16:09:58.826Z,52.00
2023-01-29T16:12:31.245Z,43.45
2023-01-29T16:15:04.133Z,47.60
2023-01-29T16:17:44.354Z,50.90
2023-01-29T16:20:34.160Z,51.20
2023-01-29T16:23:06.679Z,54.85
2023-01-29T16:25:42.039Z,46.63
2023-01-29T16:28:14.550Z,50.00
2023-01-29T16:30:46.738Z,48.97
2023-01-29T16:33:21.632Z,46.50
2023-01-29T16:35:55.080Z,47.08
2023-01-29T16:38:33.272Z,48.40
2023-01-29T16:41:19.186Z,46.63
2023-01-29T16:43:56.537Z,47.08
2023-01-29T16:46:35.050Z,45.65
2023-01-29T16:49:47.454Z,42.13
2023-01-29T16:52:23.780Z,51.22
2023-01-29T16:54:57.089Z,46.00
2023-01-29T16:57:33.296Z,47.08
2023-01-29T17:00:10.403Z,50.30
2023-01-29T17:02:43.145Z,46.60
2023-01-29T17:05:25.795Z,48.45
2023-01-29T17:08:01.246Z,49.83
2023-01-29T17:10:36.302Z,47.85
2023-01-29T17:13:10.236Z,47.38
2023-01-29T17:15:49.124Z,48.67
2023-01-29T17:18:23.746Z,47.70
2023-01-29T17:21:01.055Z,48.00
2023-01-29T17:23:33.071Z,49.25
2023-01-29T17:26:07.444Z,43.67
2023-01-29T17:28:39.489Z,44.05
2023-01-29T17:31:12.030Z,46.53
2023-01-29T17:33:46.345Z,39.58
2023-01-29T17:36:21.635Z,41.95
2023-01-29T17:38:53.543Z,43.95
2023-01-29T17:41:28.989Z,42.63
2023-01-29T17:44:00.486Z,42.58
2023-01-29T17:46:32.565Z,44.28
2023-01-29T17:49:04.826Z,41.05
2023-01-29T17:51:39.398Z,44.08
2023-01-29T17:54:10.619Z,42.95
2023-01-29T17:56:42.846Z,43.40
2023-01-29T17:59:17.795Z,43.33
2023-01-29T18:01:50.167Z,38.50
2023-01-29T18:04:21.585Z,43.45
2023-01-29T18:06:57.379Z,39.15
2023-01-29T18:09:28.850Z,40.58
2023-01-29T18:12:00.729Z,38.17
2023-01-29T18:14:31.926Z,41.60
2023-01-29T18:17:03.633Z,37.30
2023-01-29T18:19:35.116Z,40.00
2023-01-29T18:22:09.724Z,41.38
2023-01-29T18:24:41.193Z,38.47
2023-01-29T18:27:13.086Z,40.20
2023-01-29T18:29:44.683Z,37.92
2023-01-29T18:32:16.195Z,41.78
2023-01-29T18:34:47.344Z,34.83
2023-01-29T18:37:21.551Z,37.03
2023-01-29T18:39:53.316Z,37.20
2023-01-29T18:42:25.039Z,38.92
2023-01-29T18:44:56.477Z,36.90
2023-01-29T18:47:28.122Z,34.95
2023-01-29T18:49:59.594Z,35.85
2023-01-29T18:52:34.686Z,35.30
2023-01-29T18:55:06.392Z,37.67
2023-01-29T18:58:33.444Z,41.45
2023-01-29T19:00:30.886Z,35.33
2023-01-29T19:03:02.795Z,35.45
2023-01-29T19:05:36.619Z,32.38
2023-01-29T19:08:11.414Z,34.72
2023-01-29T19:10:43.786Z,34.38
2023-01-29T19:13:15.688Z,36.30
2023-01-29T19:15:50.394Z,37.10
2023-01-29T19:18:22.351Z,35.55
2023-01-29T19:20:56.067Z,34.90
2023-01-29T19:23:30.341Z,34.78
2023-01-29T19:26:02.590Z,33.35
2023-01-29T19:28:34.692Z,32.40
2023-01-29T19:31:06.571Z,33.50
2023-01-29T19:33:39.402Z,32.97
2023-01-29T19:36:14.022Z,32.65
2023-01-29T19:38:49.478Z,32.65
2023-01-29T19:41:20.863Z,30.23
2023-01-29T19:43:53.909Z,34.75
2023-01-29T19:46:25.211Z,30.02
2023-01-29T19:48:59.001Z,33.25
2023-01-29T19:51:30.576Z,30.10
2023-01-29T19:54:06.623Z,25.35
2023-01-29T19:56:38.839Z,25.75
2023-01-29T19:59:10.505Z,30.73
2023-01-29T20:01:41.856Z,23.20
2023-01-29T20:04:14.500Z,26.23
2023-01-29T20:06:45.812Z,25.55
2023-01-29T20:09:20.238Z,25.35
2023-01-29T20:11:51.569Z,24.65
2023-01-29T20:14:23.724Z,21.10
2023-01-29T20:16:55.001Z,23.63
2023-01-29T20:19:26.585Z,25.48
2023-01-29T20:21:58.302Z,23.55
2023-01-29T20:24:34.963Z,21.75
2023-01-29T20:27:06.272Z,19.88
2023-01-29T20:29:38.059Z,23.15
2023-01-29T20:32:11.893Z,24.45
2023-01-29T20:34:44.086Z,26.77
2023-01-29T20:37:15.527Z,24.50
2023-01-29T20:39:49.989Z,25.70
2023-01-29T20:42:21.435Z,23.83
2023-01-29T20:44:54.038Z,22.58
2023-01-29T20:47:25.421Z,24.23
2023-01-29T20:49:57.089Z,23.30
2023-01-29T20:52:28.616Z,23.60
2023-01-29T20:55:03.167Z,22.17
2023-01-29T20:57:34.909Z,24.90
2023-01-29T21:00:06.981Z,23.88
2023-01-29T21:02:39.838Z,24.20
2023-01-29T21:05:12.027Z,22.50
2023-01-29T21:07:44.552Z,22.42
2023-01-29T21:10:19.955Z,19.40
2023-01-29T21:12:51.425Z,20.25
2023-01-29T21:15:24.939Z,21.67
2023-01-29T21:17:57.456Z,21.13
2023-01-29T21:20:29.749Z,20.35
2023-01-29T21:23:05.984Z,22.88
2023-01-29T21:25:42.729Z,21.70
2023-01-29T21:28:15.227Z,22.65
2023-01-29T21:30:48.035Z,23.67
2023-01-29T21:33:19.396Z,25.20
2023-01-29T21:36:00.525Z,21.77
2023-01-29T21:38:31.795Z,20.10
2023-01-29T21:41:08.958Z,20.88
2023-01-29T21:43:38.157Z,20.13
2023-01-29T21:46:12.354Z,20.92
2023-01-29T21:48:44.133Z,20.42
2023-01-29T21:51:17.286Z,20.90
2023-01-29T21:53:52.039Z,20.20
2023-01-29T21:56:25.938Z,23.60
2023-01-29T21:59:01.083Z,21.98
2023-01-29T22:01:37.760Z,22.45
2023-01-29T22:07:20.690Z,25.17
2023-01-29T22:09:52.524Z,22.73
2023-01-29T22:12:26.814Z,23.23
2023-01-29T22:14:58.686Z,23.17
2023-01-29T22:17:29.984Z,22.98
2023-01-29T22:20:01.695Z,24.90
2023-01-29T22:22:36.095Z,24.10
2023-01-29T22:25:09.067Z,21.23
2023-01-29T22:27:43.667Z,25.15
2023-01-29T22:30:17.110Z,22.80
2023-01-29T22:32:48.753Z,25.42
2023-01-29T22:35:20.815Z,21.60
2023-01-29T22:37:52.311Z,23.58
2023-01-29T22:40:24.060Z,23.50
2023-01-29T22:42:58.184Z,22.40
2023-01-29T22:45:30.147Z,22.80
2023-01-29T22:48:01.412Z,22.80
2023-01-29T22:50:33.840Z,25.38
2023-01-29T22:53:05.036Z,24.13
2023-01-29T22:55:36.692Z,22.33
2023-01-29T22:58:10.682Z,19.98
2023-01-29T23:00:42.137Z,23.13
2023-01-29T23:03:13.430Z,19.83
2023-01-29T23:05:45.028Z,22.42
2023-01-29T23:08:16.344Z,19.33
2023-01-29T23:10:47.883Z,21.60
2023-01-29T23:13:21.714Z,19.17
2023-01-29T23:16:02.223Z,22.80
2023-01-29T23:18:33.791Z,19.17
2023-01-29T23:21:05.463Z,23.40
2023-01-29T23:23:38.204Z,20.65
2023-01-29T23:26:35.219Z,21.85
2023-01-29T23:29:09.409Z,24.17
2023-01-29T23:31:41.291Z,20.90
2023-01-29T23:34:12.581Z,21.45
2023-01-29T23:36:44.382Z,22.80
2023-01-29T23:39:15.739Z,23.67
2023-01-29T23:41:47.593Z,18.90
2023-01-29T23:44:21.724Z,20.75
2023-01-29T23:46:54.082Z,22.75
2023-01-29T23:49:26.483Z,20.23
2023-01-29T23:51:58.463Z,20.42
2023-01-29T23:54:30.226Z,21.17
2023-01-29T23:57:02.200Z,24.08
2023-01-29T23:59:36.994Z,23.40
